Terminal Aerodrome Forecast
Issued by NWS Cleveland, OH

Home | Current Version | Previous Version | Text Only | Print | Product List | Glossary Off
Versions: 1 2 3 4 5 6 7 8 9 10 11 12 13 14 15 16 17 18 19 20 21 22

000
FTUS41 KCLE 171300 AAA
TAFCAK
TAF AMD
KCAK 171345Z 1714/1812 27010G20KT P6SM VCSH OVC012
      TEMPO 1714/1715 5SM -RA BR SCT008 OVC015
     FM171500 27012G22KT P6SM OVC015
     FM171900 27012G22KT P6SM OVC025
     FM172300 27010KT P6SM OVC030=

USA.gov is the U.S. government's official web portal to all federal, state and local government web resources and services.